Sikeston, MO

7:12 PM CDT on August 28, 2016 (GMT -0500)
Sikeston Ridge | | Change Station

Elev 326 ft 36.89 °N, 89.60 °W | Updated 10 minutes ago

Clear
Clear
89.2 °F
Feels Like 103 °F
N
0.0
Wind Variable Wind from ESE
Gusts 0.0 mph

Today
High -- | Low -- °F
--% Chance of Precip.
Yesterday
High -- | Low -- °F
Precip. -- in
Pressure 30.04 in
Visibility 10.0 miles
Clouds Clear
Heat Index 103 °F
Dew Point 78 °F
Humidity 69%
Rainfall 0.00 in
Snow Depth Not available.
6:26 AM 7:31 PM
Waning Crescent, 12% visible
METAR KCGI 282353Z AUTO 08005KT 10SM CLR 31/23 A3006 RMK AO2 SLP173 T03110233 10339 20311 55004
Pressure 30.04 in
Visibility 10.0 miles
Clouds Clear
Heat Index 103 °F
Dew Point 78 °F
Humidity 69%
Rainfall 0.00 in
Snow Depth Not available.
6:26 AM 7:31 PM
Waning Crescent, 12% visible
METAR KCGI 282353Z AUTO 08005KT 10SM CLR 31/23 A3006 RMK AO2 SLP173 T03110233 10339 20311 55004

10-Day Weather Forecast

Almanac

Astronomy

Aug. 28, 2016 Rise Set
Actual Time
Civil Twilight
Nautical Twilight
Astronomical Twilight
Moon
Length of Visible Light
Length of Day
Tomorrow will be .
, % of the Moon is Illuminated

Today's Extremes

State Highs State Lows

Community

WunderPhotos

Upload Photos

1,935,728 photos uploaded!

WunderBlog® & News

Nearby

Air Quality

  Air Quality AQ Index Pollutant
Not available.

Snow Depth

Station Depth Elevation

Earthquake Activity

City Distance Mag. Time & Date
Minimum magnitude displayed is 2.5.

Coastal Water Temperatures

Place Temperature

Stations

Nearby Weather Stations

Station Location Temp. Windchill Dew Point Humidity Wind Precip. Elev Updated Type
                   

Watches & Warnings

There are currently no watches in effect.